1963 Tropical Cyclone (Storm) NOT_NAMED (1963173S15154)


IBTrACS version v04r00. Visit IBTrACS website for data access.
Please direct all questions to the IBTrACS Q and A forum

Storm track - Intensity - Wind Radii - Intensity Data - Source Data - All data

Summary Information

Storm ID 1963173S15154
Start Jun 22 05Z
Max Intensity 50 kt (Jul 3 18Z)
End Jul 3 23Z
ATCF IDs ,SH541963,SH551963
Track status Best track data.

Storm track plot

Map of storm track

Intensity plots

Map of storm track

Radial wind information

No radial wind information for this storm


Position and Intensity Table

BASIN ISO_TIME_________ NATURE LAT LON WMO PRES USA WIND BOM PRES DS824 WIND DS824 PRES TD9636 WIND NEUMANN WIND
degrees north degrees east mb kts mb kts mb kts kts
SP 1963-06-22 05:00:00 NR -15.40 154.40 1007 1007 20
SP 06:00:00 TS -15.52 154.55 20 1006 15 1007 20
SP 09:00:00 TS -15.96 155.07 22 1005 17 1005 21
SP 11:00:00 TS -16.24 155.42 1004 24 1004 19 1004 22
SP 12:00:00 TS -16.39 155.59 25 1003 20 1004 22
SP 15:00:00 TS -16.80 156.12 25 1002 25 1002 24
SP 17:00:00 TS -17.08 156.51 1001 25 1001 28 1001 25
SP 18:00:00 TS -17.21 156.74 25 1001 30 1001 25
SP 21:00:00 TS -17.66 157.49 25 1002 27 1002 25
SP 23:00:00 TS -18.02 158.06 1003 25 1003 25 1002 25
SP 1963-06-23 00:00:00 TS -18.33 158.44 25 1002 25 1003 25 25
SP 03:00:00 TS -18.87 158.97 25 1001 27 1002 25 25
SP 05:00:00 TS -19.23 159.27 1001 25 1001 29 1001 25 25
SP 06:00:00 TS -19.44 159.37 25 1001 30 1001 25
SP 09:00:00 TS -19.92 159.61 25 1002 25
SP 11:00:00 TS -20.22 159.45 1003 25 1003 25
SP 12:00:00 TS -20.31 158.96 25 25
SP 15:00:00 TS -20.62 158.78 25 25
SP 17:00:00 TS -20.80 158.65 1003 25 25
SP 18:00:00 TS -20.90 158.60 25 25
SP 21:00:00 TS -21.16 158.47 25 25
SP 23:00:00 TS -21.32 158.41 1004 25 25
SP 1963-06-24 00:00:00 TS -21.39 158.39 25 25
SP 03:00:00 TS -21.55 158.38 25 25
SP 05:00:00 TS -21.65 158.39 1005 25 25
SP 06:00:00 TS -21.70 158.39 25 25
SP 09:00:00 TS -21.89 158.40 25 25
SP 11:00:00 TS -22.02 158.40 1005 25 25
SP 12:00:00 TS -22.09 158.40 25 25
SP 15:00:00 TS -22.25 158.39 25 25
SP 17:00:00 TS -22.37 158.39 1006 25 25
SP 18:00:00 TS -22.43 158.39 25 25
SP 21:00:00 TS -22.63 158.37 25 25
SP 23:00:00 TS -22.80 158.39 1007 25 25
SP 1963-06-25 00:00:00 TS -22.90 158.41 25 25
SP 03:00:00 TS -23.27 158.52 22 22
SP 05:00:00 TS -23.54 158.67 1006 20 20
SP 06:00:00 TS -23.67 158.76 20 20
SP 09:00:00 TS -24.07 159.11 20 20
SP 11:00:00 TS -24.30 159.42 1007 20 20
SP 12:00:00 TS -24.40 159.59 20 20
SP 15:00:00 TS -24.60 160.20 22 22
SP 17:00:00 TS -24.71 160.64 1007 24 24
SP 18:00:00 TS -24.77 160.87 25 25
SP 21:00:00 TS -24.94 161.56 27 27
SP 23:00:00 TS -25.10 162.00 1005 29 29
SP 1963-06-26 00:00:00 TS -25.20 162.21 30 30
SP 03:00:00 TS -25.60 162.77 30 30
SP 05:00:00 TS -25.90 163.05 1000 30 30
SP 06:00:00 TS -26.06 163.16 30 30
SP 09:00:00 TS -26.51 163.36 30 30
SP 11:00:00 TS -26.79 163.39 1002 30 30
SP 12:00:00 TS -26.90 163.38 30 30
SP 15:00:00 TS -27.19 163.22 25 25
SP 17:00:00 TS -27.35 163.07 1001 21 21
SP 18:00:00 TS -27.43 163.00 20 20
SP 21:00:00 TS -27.64 162.87 17 17
SP 23:00:00 TS -27.80 162.84 1001 15 15
SP 1963-06-27 00:00:00 TS -27.90 162.85 15 15
SP 03:00:00 TS -28.27 162.99 17 17
SP 05:00:00 TS -28.55 163.14 1000 19 19
SP 06:00:00 TS -28.70 163.21 20 20
SP 09:00:00 TS -29.12 163.44 22 22
SP 11:00:00 TS -29.38 163.58 1000 24 24
SP 12:00:00 TS -29.51 163.64 25 25
SP 15:00:00 TS -29.85 163.82 22 22
SP 17:00:00 TS -30.06 163.91 1002 20 20
SP 18:00:00 TS -30.16 163.94 20 20
SP 21:00:00 TS -30.46 164.00 20 20
SP 23:00:00 TS -30.62 164.00 1003 20 20
SP 1963-06-28 00:00:00 TS -30.69 164.00 20 20
SP 03:00:00 TS -30.86 163.95 22 22
SP 05:00:00 TS -30.94 163.88 1004 24 24
SP 06:00:00 TS -30.97 163.84 25 25
SP 09:00:00 TS -31.05 163.67 27 27
SP 11:00:00 TS -31.08 163.55 29 29
SP 12:00:00 TS -31.09 163.49 30 30
SP 15:00:00 TS -31.11 163.34 30 30
SP 17:00:00 TS -31.11 163.23 1008 30 30
SP 18:00:00 TS -31.10 163.17 30 30
SP 21:00:00 TS -31.06 162.95 27 27
SP 23:00:00 TS -31.02 162.79 1009 25 25
SP 1963-06-29 00:00:00 TS -30.99 162.71 25 25
SP 03:00:00 TS -30.90 162.45 22 22
SP 05:00:00 TS -30.82 162.28 1008 20 20
SP 06:00:00 TS -30.78 162.20 20 20
SP 09:00:00 TS -30.63 161.94 17 17
SP 11:00:00 TS -30.49 161.78 1006 15 15
SP 12:00:00 TS -30.40 161.71 15 15
SP 15:00:00 TS -30.07 161.55 17 17
SP 17:00:00 TS -29.82 161.48 1005 19 19
SP 18:00:00 TS -29.69 161.46 20 20
SP 21:00:00 TS -29.32 161.41 22 22
SP 23:00:00 TS -29.10 161.40 1003 24 24
SP 1963-06-30 00:00:00 TS -29.00 161.40 25 25
SP 03:00:00 TS -28.78 161.41 22 22
SP 05:00:00 TS -28.67 161.45 1002 20 20
SP 06:00:00 TS -28.63 161.48 20 20
SP 09:00:00 TS -28.54 161.61 20 20
SP 11:00:00 TS -28.50 161.72 1002 20 20
SP 12:00:00 TS -28.49 161.78 20 20
SP 15:00:00 TS -28.46 161.97 17 17
SP 17:00:00 TS -28.47 162.15 1002 15 15
SP 18:00:00 TS -28.49 162.26 15 15
SP 21:00:00 TS -28.61 162.68 15 15
SP 23:00:00 TS -28.72 163.00 1000 15 15
SP 1963-07-01 00:00:00 TS -28.78 163.16 15 15
SP 03:00:00 TS -28.97 163.66 15 15
SP 05:00:00 TS -29.11 164.00 997 15 15
SP 06:00:00 TS -29.18 164.17 15 15
SP 09:00:00 TS -29.37 164.68 17 17
SP 11:00:00 TS -29.50 165.01 19 19
SP 12:00:00 TS -29.56 165.17 20 20
SP 15:00:00 TS -29.74 165.61 25 25
SP 18:00:00 TS -29.94 166.01 30 30
SP 21:00:00 TS -30.17 166.39 35 35
SP 23:00:00 TS -30.33 166.62 38 38
SP 1963-07-02 00:00:00 TS -30.42 166.72 40 40
SP 03:00:00 TS -30.68 167.00 32 32
SP 05:00:00 TS -30.87 167.14 993 27 27
SP 06:00:00 TS -30.97 167.20 25 25
SP 09:00:00 TS -31.32 167.32 20 20
SP 11:00:00 TS -31.59 167.38 991 16 16
SP 12:00:00 TS -31.73 167.41 15 15
SP 15:00:00 TS -32.20 167.51 15 15
SP 17:00:00 TS -32.53 167.58 988 15 15
SP 18:00:00 TS -32.69 167.61 15 15
SP 21:00:00 TS -33.17 167.71 17 17
SP 23:00:00 TS -33.48 167.79 987 19 19
SP 1963-07-03 00:00:00 TS -33.63 167.83 20 20
SP 03:00:00 TS -34.08 167.97 22 22
SP 05:00:00 TS -34.37 168.08 986 24 24
SP 06:00:00 TS -34.51 168.13 25 25
SP 09:00:00 TS -34.92 168.31 30 30
SP 11:00:00 TS -35.18 168.43 988 33 33
SP 12:00:00 TS -35.31 168.48 35 35
SP 15:00:00 TS -35.71 168.64 42 42
SP 17:00:00 TS -35.97 168.74 990 47 47
SP 18:00:00 TS -36.10 168.79 50 50
SP 21:00:00 NR -36.47 168.97
SP 23:00:00 NR -36.70 169.10 994

Source Information

Agency Information
USA bsh541963.txt::bsh551963.txt
TOKYO
CMA
HKO
NEWDELHI
REUNION
BOM IDCKMSTM0S.csv:Line=3813:unnamed
NADI
WELLINGTON
DS824 aus_area.dat:349:NOT NAMED
TD9636 cons_worldwide_trop_cyclone_18710101-19891231-006:Line=6666
TD9635
NEUMANN tracks.sh:Storm=85:HSK3963:BSH5563:JTWC
MLC

All available IBTrACS Data

SEASON BASIN SUBBASIN ISO_TIME_________ NATURE LAT LON WMO PRES WMO AGENCY DIST2LAND LANDFALL IFLAG USA AGENCY USA ATCF_ID USA LAT USA LON USA WIND USA SSHS BOM LAT BOM LON BOM PRES DS824 LAT DS824 LON DS824 STAGE DS824 WIND DS824 PRES TD9636 LAT TD9636 LON TD9636 STAGE TD9636 WIND NEUMANN LAT NEUMANN LON NEUMANN CLASS NEUMANN WIND STORM SPEED STORM DIR
Year degrees north degrees east mb km km degrees north degrees east kts 1 degrees north degrees east mb degrees north degrees east kts mb degrees north degrees east kts degrees north degrees east kts kts degrees
1963 SP EA 1963-06-22 05:00:00 NR -15.40 154.40 1007 bom 670 670 ______O___O___ -1 -15.40 154.40 1007 -15.40 154.40 1 20 11 129
1963 SP EA 06:00:00 TS -15.52 154.55 692 692 O_____P__OP___ jtwc_sh SH541963 -15.50 154.50 20 -1 -15.53 154.57 1006 -15.50 154.60 TC 15 1007 -15.54 154.57 1 20 13 131
1963 SP EA 09:00:00 TS -15.96 155.07 769 769 P_____P__PP___ SH541963 -15.97 155.05 22 -1 -15.92 155.08 1005 -15.96 155.09 TC 17 1005 -15.97 155.10 1 21 13 131
1963 SP EA 11:00:00 TS -16.24 155.42 1004 bom 807 807 P_____O__PP___ SH541963 -16.26 155.42 24 -1 -16.20 155.40 1004 -16.26 155.43 TC 19 1004 -16.25 155.45 1 22 13 131
1963 SP EA 12:00:00 TS -16.39 155.59 838 838 O_____P__OP___ jtwc_sh SH541963 -16.40 155.60 25 -1 -16.35 155.56 1003 -16.40 155.60 TC 20 1004 -16.39 155.62 1 22 13 129
1963 SP EA 15:00:00 TS -16.80 156.12 843 841 P_____P__PP___ SH541963 -16.79 156.14 25 -1 -16.80 156.07 1002 -16.80 156.14 TC 25 1002 -16.82 156.15 1 24 13 128
1963 SP EA 17:00:00 TS -17.08 156.51 1001 bom 848 843 P_____O__PO___ SH541963 -17.06 156.51 25 -1 -17.10 156.50 1001 -17.06 156.56 TC 28 1001 -17.10 156.50 1 25 14 125
1963 SP EA 18:00:00 TS -17.21 156.74 843 756 O_____P__OP___ jtwc_sh SH541963 -17.20 156.70 25 -1 -17.23 156.80 1001 -17.20 156.80 TC 30 1001 -17.26 156.73 1 25 16 122
1963 SP EA 21:00:00 TS -17.66 157.49 742 680 P_____P__PP___ SH541963 -17.68 157.31 25 -1 -17.62 157.80 1002 -17.63 157.71 TC 27 1002 -17.74 157.43 1 25 18 123
1963 SP EA 23:00:00 TS -18.02 158.06 1003 bom 670 628 P_____O__PP___ SH541963 -18.03 157.76 25 -1 -17.90 158.40 1003 -17.94 158.33 TC 25 1002 -18.06 157.89 1 25 23 127
1963 SP EA 1963-06-23 00:00:00 TS -18.33 158.44 628 560 O_____P__OP_O_ jtwc_sh SH541963 -18.20 158.00 25 -1 -18.06 158.58 1002 -18.10 158.60 TC 25 1003 -18.21 158.13 1 25 -19.10 159.30 TC 25 18 135
1963 SP EA 03:00:00 TS -18.87 158.97 546 506 P_____P__PP_P_ SH541963 -18.69 158.94 25 -1 -18.61 158.98 1001 -18.63 159.19 TC 27 1002 -18.69 158.83 1 25 -19.40 159.26 TC 25 14 139
1963 SP EA 05:00:00 TS -19.23 159.27 1001 bom 506 491 P_____O__PO_P_ SH541963 -19.03 159.45 25 -1 -19.00 159.30 1001 -19.01 159.47 TC 29 1001 -19.00 159.30 1 25 -19.60 159.22 TC 25 14 146
1963 SP EA 06:00:00 TS -19.44 159.37 491 461 O_____P__O__O_ jtwc_sh SH541963 -19.20 159.60 25 -1 -19.20 159.53 1001 -19.20 159.60 TC 30 1001 1 -19.70 159.20 TC 25 11 156
1963 SP EA 09:00:00 TS -19.92 159.61 461 459 P_____P_____P_ SH541963 -19.78 159.45 25 -1 -19.80 160.47 1002 TC 1 -20.00 159.12 TC 25 9 175
1963 SP EA 11:00:00 TS -20.22 159.45 1003 bom 479 479 P_____O_____P_ SH541963 -20.14 159.15 25 -1 -20.20 161.20 1003 TC 1 -20.20 159.05 TC 25 14 238
1963 SP EA 12:00:00 TS -20.31 158.96 521 521 O___________O_ jtwc_sh SH551963 -20.30 159.00 25 -1 1 -20.30 159.00 TC 25 11 238
1963 SP EA 15:00:00 TS -20.62 158.78 542 542 P___________P_ SH551963 -20.64 158.77 25 -1 1 -20.61 158.80 TC 25 7 210
1963 SP EA 17:00:00 TS -20.80 158.65 1003 bom 554 554 P___________P_ SH551963 -20.82 158.65 25 -1 -20.81 158.66 TC 25 7 211
1963 SP EA 18:00:00 TS -20.90 158.60 565 565 O___________O_ jtwc_sh SH551963 -20.90 158.60 25 -1 -20.90 158.60 TC 25 6 206
1963 SP EA 21:00:00 TS -21.16 158.47 580 580 P___________P_ SH551963 -21.17 158.47 25 -1 -21.17 158.47 TC 25 6 202
1963 SP EA 23:00:00 TS -21.32 158.41 1004 bom 592 592 P___________P_ SH551963 -21.33 158.42 25 -1 -21.33 158.42 TC 25 5 197
1963 SP EA 1963-06-24 00:00:00 TS -21.39 158.39 594 594 O___________O_ jtwc_sh SH551963 -21.40 158.40 25 -1 -21.40 158.40 TC 25 3 188
1963 SP EA 03:00:00 TS -21.55 158.38 596 596 P___________P_ SH551963 -21.56 158.38 25 -1 -21.56 158.38 TC 25 3 0
1963 SP EA 05:00:00 TS -21.65 158.39 1005 bom 599 599 P___________P_ SH551963 -21.65 158.39 25 -1 -21.65 158.39 TC 25 3 0
1963 SP EA 06:00:00 TS -21.70 158.39 601 601 O___________O_ jtwc_sh SH551963 -21.70 158.40 25 -1 -21.70 158.40 TC 25 4 0
1963 SP EA 09:00:00 TS -21.89 158.40 607 606 P___________P_ SH551963 -21.90 158.40 25 -1 -21.90 158.40 TC 25 4 176
1963 SP EA 11:00:00 TS -22.02 158.40 1005 bom 606 601 P___________P_ SH551963 -22.04 158.40 25 -1 -22.04 158.40 TC 25 4 174
1963 SP EA 12:00:00 TS -22.09 158.40 601 595 O___________O_ jtwc_sh SH551963 -22.10 158.40 25 -1 -22.10 158.40 TC 25 3 187
1963 SP EA 15:00:00 TS -22.25 158.39 589 584 P___________P_ SH551963 -22.24 158.40 25 -1 -22.24 158.40 TC 25 3 184
1963 SP EA 17:00:00 TS -22.37 158.39 1006 bom 584 584 P___________P_ SH551963 -22.34 158.40 25 -1 -22.34 158.40 TC 25 4 0
1963 SP EA 18:00:00 TS -22.43 158.39 584 574 O___________O_ jtwc_sh SH551963 -22.40 158.40 25 -1 -22.40 158.40 TC 25 4 186
1963 SP EA 21:00:00 TS -22.63 158.37 574 564 P___________P_ SH551963 -22.61 158.37 25 -1 -22.61 158.37 TC 25 4 183
1963 SP EA 23:00:00 TS -22.80 158.39 1007 bom 564 559 P___________P_ SH551963 -22.79 158.38 25 -1 -22.79 158.38 TC 25 5 171
1963 SP EA 1963-06-25 00:00:00 TS -22.90 158.41 559 550 O___________O_ jtwc_sh SH551963 -22.90 158.40 25 -1 -22.90 158.40 TC 25 7 165
1963 SP EA 03:00:00 TS -23.27 158.52 550 550 P___________P_ SH551963 -23.28 158.54 22 -1 -23.28 158.54 TC 22 8 159
1963 SP EA 05:00:00 TS -23.54 158.67 1006 bom 562 559 P___________P_ SH551963 -23.56 158.70 20 -1 -23.56 158.70 TC 20 9 151
1963 SP EA 06:00:00 TS -23.67 158.76 565 562 O___________O_ jtwc_sh SH551963 -23.70 158.80 20 -1 -23.70 158.80 TC 20 10 143
1963 SP EA 09:00:00 TS -24.07 159.11 584 584 P___________P_ SH551963 -24.09 159.13 20 -1 -24.09 159.13 TC 20 10 137
1963 SP EA 11:00:00 TS -24.30 159.42 1007 bom 610 610 P___________P_ SH551963 -24.31 159.43 20 -1 -24.31 159.43 TC 20 11 127
1963 SP EA 12:00:00 TS -24.40 159.59 629 599 O___________O_ jtwc_sh SH551963 -24.40 159.60 20 -1 -24.40 159.60 TC 20 12 113
1963 SP MM 15:00:00 TS -24.60 160.20 599 573 P___________P_ SH551963 -24.57 160.21 22 -1 -24.57 160.21 TC 22 12 108
1963 SP MM 17:00:00 TS -24.71 160.64 1007 bom 573 558 P___________P_ SH551963 -24.65 160.67 24 -1 -24.65 160.67 TC 24 13 105
1963 SP MM 18:00:00 TS -24.77 160.87 558 523 O___________O_ jtwc_sh SH551963 -24.70 160.90 25 -1 -24.70 160.90 TC 25 13 105
1963 SP MM 21:00:00 TS -24.94 161.56 516 505 P___________P_ SH551963 -24.91 161.59 27 -1 -24.91 161.59 TC 27 13 108
1963 SP MM 23:00:00 TS -25.10 162.00 1005 bom 508 502 P___________P_ SH551963 -25.09 162.01 29 -1 -25.09 162.01 TC 29 13 114
1963 SP MM 1963-06-26 00:00:00 TS -25.20 162.21 506 500 O___________O_ jtwc_sh SH551963 -25.20 162.20 30 -1 -25.20 162.20 TC 30 13 126
1963 SP MM 03:00:00 TS -25.60 162.77 513 513 P___________P_ SH551963 -25.63 162.67 30 -1 -25.63 162.67 TC 30 12 133
1963 SP MM 05:00:00 TS -25.90 163.05 1000 bom 522 522 P___________P_ SH551963 -25.95 162.90 30 -1 -25.95 162.90 TC 30 12 143
1963 SP MM 06:00:00 TS -26.06 163.16 534 534 O___________O_ jtwc_sh SH551963 -26.10 163.00 30 -1 -26.10 163.00 TC 30 10 156
1963 SP MM 09:00:00 TS -26.51 163.36 558 558 P___________P_ SH551963 -26.53 163.29 30 -1 -26.53 163.29 TC 30 9 164
1963 SP MM 11:00:00 TS -26.79 163.39 1002 bom 587 587 P___________P_ SH551963 -26.79 163.39 30 -1 -26.79 163.39 TC 30 8 177
1963 SP MM 12:00:00 TS -26.90 163.38 596 596 O___________O_ jtwc_sh SH551963 -26.90 163.40 30 -1 -26.90 163.40 TC 30 7 201
1963 SP MM 15:00:00 TS -27.19 163.22 635 635 P___________P_ SH551963 -27.17 163.24 25 -1 -27.17 163.24 TC 25 6 212
1963 SP MM 17:00:00 TS -27.35 163.07 1001 bom 659 659 P___________P_ SH551963 -27.32 163.07 21 -1 -27.32 163.07 TC 21 6 219
1963 SP MM 18:00:00 TS -27.43 163.00 664 664 O___________O_ jtwc_sh SH551963 -27.40 163.00 20 -1 -27.40 163.00 TC 20 5 212
1963 SP MM 21:00:00 TS -27.64 162.87 689 689 P___________P_ SH551963 -27.63 162.89 17 -1 -27.63 162.89 TC 17 5 201
1963 SP MM 23:00:00 TS -27.80 162.84 1001 bom 713 713 P___________P_ SH551963 -27.80 162.88 15 -1 -27.80 162.88 TC 15 5 182
1963 SP MM 1963-06-27 00:00:00 TS -27.90 162.85 717 717 O___________O_ jtwc_sh SH551963 -27.90 162.90 15 -1 -27.90 162.90 TC 15 7 164
1963 SP MM 03:00:00 TS -28.27 162.99 752 752 P___________P_ SH551963 -28.28 163.07 17 -1 -28.28 163.07 TC 17 8 159
1963 SP MM 05:00:00 TS -28.55 163.14 1000 bom 777 773 P___________P_ SH551963 -28.56 163.23 19 -1 -28.56 163.23 TC 19 9 155
1963 SP MM 06:00:00 TS -28.70 163.21 783 783 O___________O_ jtwc_sh SH551963 -28.70 163.30 20 -1 -28.70 163.30 TC 20 9 155
1963 SP MM 09:00:00 TS -29.12 163.44 816 816 P___________P_ SH551963 -29.11 163.46 22 -1 -29.11 163.46 TC 22 9 155
1963 SP MM 11:00:00 TS -29.38 163.58 1000 bom 840 840 P___________P_ SH551963 -29.37 163.55 24 -1 -29.37 163.55 TC 24 9 156
1963 SP MM 12:00:00 TS -29.51 163.64 851 847 O___________O_ jtwc_sh SH551963 -29.50 163.60 25 -1 -29.50 163.60 TC 25 8 156
1963 SP MM 15:00:00 TS -29.85 163.82 886 882 P___________P_ SH551963 -29.87 163.76 22 -1 -29.87 163.76 TC 22 7 158
1963 SP MM 17:00:00 TS -30.06 163.91 1002 bom 904 904 P___________P_ SH551963 -30.10 163.86 20 -1 -30.10 163.86 TC 20 7 162
1963 SP MM 18:00:00 TS -30.16 163.94 914 911 O___________O_ jtwc_sh SH551963 -30.20 163.90 20 -1 -30.20 163.90 TC 20 6 169
1963 SP MM 21:00:00 TS -30.46 164.00 919 914 P___________P_ SH551963 -30.48 163.98 20 -1 -30.48 163.98 TC 20 6 172
1963 SP MM 23:00:00 TS -30.62 164.00 1003 bom 914 908 P___________P_ SH551963 -30.63 164.00 20 -1 -30.63 164.00 TC 20 5 185
1963 SP MM 1963-06-28 00:00:00 TS -30.69 164.00 908 897 O___________O_ jtwc_sh SH551963 -30.70 164.00 20 -1 -30.70 164.00 TC 20 4 194
1963 SP MM 03:00:00 TS -30.86 163.95 905 905 P___________P_ SH551963 -30.88 163.99 22 -1 -30.88 163.99 TC 22 3 203
1963 SP MM 05:00:00 TS -30.94 163.88 1004 bom 905 900 P___________P_ SH551963 -30.97 163.94 24 -1 -30.97 163.94 TC 24 3 222
1963 SP MM 06:00:00 TS -30.97 163.84 908 908 O___________O_ jtwc_sh SH551963 -31.00 163.90 25 -1 -31.00 163.90 TC 25 3 237
1963 SP MM 09:00:00 TS -31.05 163.67 912 912 P___________P_ SH551963 -31.07 163.72 27 -1 -31.07 163.72 TC 27 3 245
1963 SP MM 11:00:00 TS -31.08 163.55 920 920 P___________P_ SH551963 -31.09 163.57 29 -1 -31.09 163.57 TC 29 3 255
1963 SP MM 12:00:00 TS -31.09 163.49 929 929 O___________O_ jtwc_sh SH551963 -31.10 163.50 30 -1 -31.10 163.50 TC 30 3 260
1963 SP MM 15:00:00 TS -31.11 163.34 946 946 P___________P_ SH551963 -31.11 163.36 30 -1 -31.11 163.36 TC 30 3 266
1963 SP MM 17:00:00 TS -31.11 163.23 1008 bom 954 954 P___________P_ SH551963 -31.11 163.26 30 -1 -31.11 163.26 TC 30 3 275
1963 SP MM 18:00:00 TS -31.10 163.17 954 936 O___________O_ jtwc_sh SH551963 -31.10 163.20 30 -1 -31.10 163.20 TC 30 4 281
1963 SP MM 21:00:00 TS -31.06 162.95 936 915 P___________P_ SH551963 -31.07 162.97 27 -1 -31.07 162.97 TC 27 4 284
1963 SP MM 23:00:00 TS -31.02 162.79 1009 bom 915 906 P___________P_ SH551963 -31.03 162.79 25 -1 -31.03 162.79 TC 25 4 288
1963 SP MM 1963-06-29 00:00:00 TS -30.99 162.71 906 885 O___________O_ jtwc_sh SH551963 -31.00 162.70 25 -1 -31.00 162.70 TC 25 5 292
1963 SP MM 03:00:00 TS -30.90 162.45 885 864 P___________P_ SH551963 -30.92 162.45 22 -1 -30.92 162.45 TC 22 5 295
1963 SP MM 05:00:00 TS -30.82 162.28 1008 bom 864 854 P___________P_ SH551963 -30.85 162.28 20 -1 -30.85 162.28 TC 20 5 300
1963 SP MM 06:00:00 TS -30.78 162.20 854 822 O___________O_ jtwc_sh SH551963 -30.80 162.20 20 -1 -30.80 162.20 TC 20 5 303
1963 SP MM 09:00:00 TS -30.63 161.94 822 810 P___________P_ SH551963 -30.64 161.93 17 -1 -30.64 161.93 TC 17 6 309
1963 SP MM 11:00:00 TS -30.49 161.78 1006 bom 810 799 P___________P_ SH551963 -30.49 161.77 15 -1 -30.49 161.77 TC 15 6 320
1963 SP MM 12:00:00 TS -30.40 161.71 799 784 O___________O_ jtwc_sh SH551963 -30.40 161.70 15 -1 -30.40 161.70 TC 15 7 335
1963 SP MM 15:00:00 TS -30.07 161.55 775 771 P___________P_ SH551963 -30.07 161.57 17 -1 -30.07 161.57 TC 17 7 341
1963 SP MM 17:00:00 TS -29.82 161.48 1005 bom 771 770 P___________P_ SH551963 -29.82 161.52 19 -1 -29.82 161.52 TC 19 8 347
1963 SP MM 18:00:00 TS -29.69 161.46 770 758 O___________O_ jtwc_sh SH551963 -29.70 161.50 20 -1 -29.70 161.50 TC 20 8 352
1963 SP MM 21:00:00 TS -29.32 161.41 758 757 P___________P_ SH551963 -29.33 161.43 22 -1 -29.33 161.43 TC 22 7 355
1963 SP MM 23:00:00 TS -29.10 161.40 1003 bom 757 757 P___________P_ SH551963 -29.10 161.40 24 -1 -29.10 161.40 TC 24 6 359
1963 SP MM 1963-06-30 00:00:00 TS -29.00 161.40 757 757 O___________O_ jtwc_sh SH551963 -29.00 161.40 25 -1 -29.00 161.40 TC 25 5 0
1963 SP MM 03:00:00 TS -28.78 161.41 758 758 P___________P_ SH551963 -28.75 161.42 22 -1 -28.75 161.42 TC 22 4 7
1963 SP MM 05:00:00 TS -28.67 161.45 1002 bom 759 759 P___________P_ SH551963 -28.64 161.47 20 -1 -28.64 161.47 TC 20 3 21
1963 SP MM 06:00:00 TS -28.63 161.48 769 769 O___________O_ jtwc_sh SH551963 -28.60 161.50 20 -1 -28.60 161.50 TC 20 3 45
1963 SP MM 09:00:00 TS -28.54 161.61 780 780 P___________P_ SH551963 -28.52 161.62 20 -1 -28.52 161.62 TC 20 3 59
1963 SP MM 11:00:00 TS -28.50 161.72 1002 bom 789 789 P___________P_ SH551963 -28.50 161.73 20 -1 -28.50 161.73 TC 20 3 74
1963 SP MM 12:00:00 TS -28.49 161.78 799 799 O___________O_ jtwc_sh SH551963 -28.50 161.80 20 -1 -28.50 161.80 TC 20 3 78
1963 SP MM 15:00:00 TS -28.46 161.97 819 815 P___________P_ SH551963 -28.47 162.01 17 -1 -28.47 162.01 TC 17 4 86
1963 SP MM 17:00:00 TS -28.47 162.15 1002 bom 815 810 P___________P_ SH551963 -28.48 162.19 15 -1 -28.48 162.19 TC 15 5 97
1963 SP MM 18:00:00 TS -28.49 162.26 805 795 O___________O_ jtwc_sh SH551963 -28.50 162.30 15 -1 -28.50 162.30 TC 15 7 107
1963 SP MM 21:00:00 TS -28.61 162.68 795 790 P___________P_ SH551963 -28.62 162.71 15 -1 -28.62 162.71 TC 15 8 110
1963 SP MM 23:00:00 TS -28.72 163.00 1000 bom 792 787 P___________P_ SH551963 -28.74 163.03 15 -1 -28.74 163.03 TC 15 9 112
1963 SP MM 1963-07-01 00:00:00 TS -28.78 163.16 793 788 O___________O_ jtwc_sh SH551963 -28.80 163.20 15 -1 -28.80 163.20 TC 15 9 113
1963 SP MM 03:00:00 TS -28.97 163.66 795 792 P___________P_ SH551963 -28.99 163.69 15 -1 -28.99 163.69 TC 15 10 114
1963 SP MM 05:00:00 TS -29.11 164.00 997 bom 795 792 P___________P_ SH551963 -29.13 164.03 15 -1 -29.13 164.03 TC 15 10 115
1963 SP MM 06:00:00 TS -29.18 164.17 799 796 O___________O_ jtwc_sh SH551963 -29.20 164.20 15 -1 -29.20 164.20 TC 15 10 114
1963 SP MM 09:00:00 TS -29.37 164.68 807 802 P___________P_ SH551963 -29.40 164.72 17 -1 -29.40 164.72 TC 17 10 113
1963 SP MM 11:00:00 TS -29.50 165.01 811 809 P___________P_ SH551963 -29.53 165.04 19 -1 -29.53 165.04 TC 19 9 114
1963 SP MM 12:00:00 TS -29.56 165.17 818 814 O___________O_ jtwc_sh SH551963 -29.60 165.20 20 -1 -29.60 165.20 TC 20 9 115
1963 SP MM 15:00:00 TS -29.74 165.61 822 804 P___________P_ SH551963 -29.79 165.62 25 -1 -29.79 165.62 TC 25 8 117
1963 SP MM 18:00:00 TS -29.94 166.01 804 753 O___________O_ jtwc_sh SH551963 -30.00 166.00 30 -1 -30.00 166.00 TC 30 8 122
1963 SP MM 21:00:00 TS -30.17 166.39 753 731 P___________P_ SH551963 -30.24 166.37 35 0 -30.24 166.37 TC 35 8 127
1963 SP MM 23:00:00 TS -30.33 166.62 731 717 P___________P_ SH551963 -30.41 166.60 38 0 -30.41 166.60 TC 38 8 132
1963 SP MM 1963-07-02 00:00:00 TS -30.42 166.72 717 673 O___________O_ jtwc_sh SH551963 -30.50 166.70 40 0 -30.50 166.70 TC 40 7 136
1963 SP MM 03:00:00 TS -30.68 167.00 673 651 P___________P_ SH551963 -30.73 166.99 32 -1 -30.73 166.99 TC 32 7 141
1963 SP MM 05:00:00 TS -30.87 167.14 993 bom 651 637 P___________P_ SH551963 -30.91 167.14 27 -1 -30.91 167.14 TC 27 7 150
1963 SP MM 06:00:00 TS -30.97 167.20 637 609 O___________O_ jtwc_sh SH551963 -31.00 167.20 25 -1 -31.00 167.20 TC 25 7 161
1963 SP MM 09:00:00 TS -31.32 167.32 609 581 P___________P_ SH551963 -31.31 167.32 20 -1 -31.31 167.32 TC 20 8 165
1963 SP MM 11:00:00 TS -31.59 167.38 991 bom 581 575 P___________P_ SH551963 -31.56 167.37 16 -1 -31.56 167.37 TC 16 8 170
1963 SP MM 12:00:00 TS -31.73 167.41 575 537 O___________O_ jtwc_sh SH551963 -31.70 167.40 15 -1 -31.70 167.40 TC 15 9 169
1963 SP MM 15:00:00 TS -32.20 167.51 537 513 P___________P_ SH551963 -32.18 167.50 15 -1 -32.18 167.50 TC 15 10 170
1963 SP MM 17:00:00 TS -32.53 167.58 988 bom 513 503 P___________P_ SH551963 -32.53 167.57 15 -1 -32.53 167.57 TC 15 10 171
1963 SP MM 18:00:00 TS -32.69 167.61 503 477 O___________O_ jtwc_sh SH551963 -32.70 167.60 15 -1 -32.70 167.60 TC 15 10 170
1963 SP MM 21:00:00 TS -33.17 167.71 474 455 P___________P_ SH551963 -33.16 167.69 17 -1 -33.16 167.69 TC 17 10 169
1963 SP MM 23:00:00 TS -33.48 167.79 987 bom 455 452 P___________P_ SH551963 -33.45 167.76 19 -1 -33.45 167.76 TC 19 10 168
1963 SP MM 1963-07-03 00:00:00 TS -33.63 167.83 452 423 O___________O_ jtwc_sh SH551963 -33.60 167.80 20 -1 -33.60 167.80 TC 20 9 166
1963 SP MM 03:00:00 TS -34.08 167.97 423 412 P___________P_ SH551963 -34.06 167.94 22 -1 -34.06 167.94 TC 22 9 165
1963 SP MM 05:00:00 TS -34.37 168.08 986 bom 411 411 P___________P_ SH551963 -34.36 168.04 24 -1 -34.36 168.04 TC 24 9 163
1963 SP MM 06:00:00 TS -34.51 168.13 411 393 O___________O_ jtwc_sh SH551963 -34.50 168.10 25 -1 -34.50 168.10 TC 25 9 161
1963 SP MM 09:00:00 TS -34.92 168.31 394 386 P___________P_ SH551963 -34.91 168.30 30 -1 -34.91 168.30 TC 30 9 160
1963 SP MM 11:00:00 TS -35.18 168.43 988 bom 390 381 P___________P_ SH551963 -35.17 168.44 33 -1 -35.17 168.44 TC 33 8 160
1963 SP MM 12:00:00 TS -35.31 168.48 383 380 O___________O_ jtwc_sh SH551963 -35.30 168.50 35 0 -35.30 168.50 TC 35 8 162
1963 SP MM 15:00:00 TS -35.71 168.64 386 382 P___________P_ SH551963 -35.70 168.66 42 0 -35.70 168.66 TC 42 8 163
1963 SP MM 17:00:00 TS -35.97 168.74 990 bom 390 382 P___________P_ SH551963 -35.97 168.76 47 0 -35.97 168.76 TC 47 8 163
1963 SP MM 18:00:00 TS -36.10 168.79 387 384 O___________O_ jtwc_sh SH551963 -36.10 168.80 50 0 -36.10 168.80 TC 50 8 159
1963 SP MM 21:00:00 NR -36.47 168.97 394 393 ______________ SH551963 -1 TC 8 157
1963 SP MM 23:00:00 NR -36.70 169.10 994 bom 399 ______________ SH551963 -1 TC 8 156